• Join FlightAware (Why Join?)
  • Login
  • US Flag GB Flag 
06:09 EST


 

Airport Tracker/Info


-or-


 

Live Flight TrackerFlight Track Log ✈ SWA2855 ✈ 15-Apr-2013 ✈ KBWI - KCMH

Flight Track Log - Related Links

Times and Time Zones

All times are in EDT time to prevent confusion due to time zone crossing. See the SWA2855 flight status page for this flight to view local times or setup timezone preferences in your user account.

Time Position Orientation Groundspeed Altitude Reporting Facility
EDT Latitude Longitude Course Direction KTS MPH feet Rate Location/Type
06:24 39.1500 -76.6667 293° West 155 178 1,900  Level Potomac TRACON
06:25 39.1667 -76.7167 293° West 234 269 4,900 3,360 Climbing Potomac TRACON
06:26 39.1833 -76.8000 284° West 251 289 8,400 3,240 Climbing Potomac TRACON
06:27 39.2000 -76.8833 284° West 306 352 11,100 3,420 Climbing Potomac TRACON
06:28 39.2167 -77.0167 279° West 363 418 15,000 3,960 Climbing Potomac TRACON
06:30 39.1611 -77.2031 249° West 345 397 21,700 3,000 Climbing Washington Center
06:31 39.0747 -77.2761 213° Southwest 339 390 23,000 600 Climbing Washington Center
06:32 39.0067 -77.3681 226° Southwest 356 410 23,000 60 Level Washington Center
06:33 38.9983 -77.5014 265° West 348 400 23,200 1,440 Climbing Washington Center
06:34 38.9942 -77.6322 268° West 367 422 25,900 2,580 Climbing Washington Center
06:35 38.9856 -77.7681 265° West 379 436 28,400 1,980 Climbing Washington Center
06:36 38.9786 -77.9067 266° West 386 444 30,000 780 Climbing Washington Center
06:37 38.9700 -78.0239 265° West 386 444 30,000 960 Level Washington Center
06:38 38.9633 -78.1519 266° West 375 432 32,000 960 Climbing Washington Center
06:39 38.9606 -78.2825 268° West 370 426 32,000  Level Washington Center
06:40 38.9656 -78.4189 273° West 370 426 32,000  Level Washington Center
06:41 38.9689 -78.5497 272° West 370 426 32,000  Level Washington Center
06:42 38.9717 -78.6861 272° West 375 432 32,000  Level Washington Center
06:43 38.9764 -78.8200 273° West 381 438 32,000  Level Washington Center
06:44 38.9789 -78.9561 271° West 387 445 32,000  Level Washington Center
06:45 38.9814 -79.0897 271° West 387 445 32,000  Level Washington Center
06:46 38.9856 -79.2264 272° West 387 445 32,000  Level Washington Center
06:47 38.9878 -79.3625 271° West 387 445 32,000  Level Washington Center
06:48 38.9917 -79.5017 272° West 387 445 32,000  Level Washington Center
06:49 39.0011 -79.6572 275° West 393 452 32,000  Level Washington Center
06:50 39.0006 -79.7906 270° West 398 458 32,000 -60 Level Washington Center
06:51 39.0042 -79.9272 272° West 385 443 31,900 -660 Descending Washington Center
06:53 39.0050 -80.1967 270° West 368 423 30,000 -660 Descending Indianapolis Center
06:54 39.0078 -80.3286 272° West 369 425 30,000  Level Indianapolis Center
06:55 39.0089 -80.4608 271° West 370 426 30,000 -300 Level Indianapolis Center
06:56 39.0103 -80.5936 271° West 373 429 29,500 -780 Descending Indianapolis Center
06:57 39.0142 -80.7272 272° West 374 430 28,500 -960 Descending Indianapolis Center
06:58 39.0181 -80.8589 272° West 371 427 27,600 -1,020 Descending Indianapolis Center
06:59 39.0228 -80.9914 273° West 373 429 26,500 -1,560 Descending Indianapolis Center
07:00 39.0267 -81.1233 272° West 373 429 24,500 -1,260 Descending Indianapolis Center
07:01 39.0561 -81.2442 287° West 363 418 24,000 -480 Descending Indianapolis Center
07:02 39.1089 -81.3531 302° West 361 415 23,600 -840 Descending Indianapolis Center
07:03 39.1708 -81.4819 302° West 357 411 22,300 -1,140 Descending Indianapolis Center
07:04 39.2239 -81.5892 303° West 355 409 21,300 -1,020 Descending Indianapolis Center
07:05 39.2764 -81.6956 303° West 353 406 20,300 -1,020 Descending Indianapolis Center
07:06 39.3275 -81.8031 302° West 352 405 19,300 -960 Descending Indianapolis Center
07:07 39.3786 -81.9108 302° West 352 405 18,400 -960 Descending Indianapolis Center
07:08 39.4294 -82.0169 302° West 349 402 17,400 -1,080 Descending Indianapolis Center
07:09 39.4631 -82.0881 301° West 346 398 16,700 -1,380 Descending Indianapolis Center
07:09 39.4800 -82.1211 304° West 343 395 16,000 -2,400 Descending Indianapolis Center
07:10 39.5169 -82.1989 302° West 338 389 14,300 -2,400 Descending Indianapolis Center
07:10 39.5331 -82.2328 302° West 337 388 13,600 -2,220 Descending Indianapolis Center
07:11 39.5650 -82.3036 300° West 335 386 12,100 -2,220 Descending Indianapolis Center
07:11 39.5819 -82.3372 303° West 337 388 11,400 -1,320 Descending Indianapolis Center
07:12 39.6167 -82.4119 301° West 330 380 10,700 -1,020 Descending Indianapolis Center
07:12 39.6297 -82.4369 304° West 326 375 10,400 -1,140 Descending Indianapolis Center
07:13 39.6556 -82.4917 302° West 310 357 9,800 -1,140 Descending Indianapolis Center
07:13 39.6742 -82.5297 302° West 302 348 9,300 -1,080 Descending Indianapolis Center
07:14 39.7017 -82.5861 302° West 287 330 8,600 -1,500 Descending Indianapolis Center
07:14 39.7183 -82.6194 303° West 294 338 7,800 -1,800 Descending Indianapolis Center
07:15 39.7444 -82.6694 304° West 295 339 7,000 -1,380 Descending Indianapolis Center
07:15 39.7642 -82.7081 304° West 294 338 6,400 -1,020 Descending Indianapolis Center
07:16 39.7889 -82.7556 304° West 291 335 6,000 -420 Descending Indianapolis Center
07:16 39.8094 -82.7939 305° West 287 330 6,000 60 Level Indianapolis Center
07:17 39.8336 -82.8394 305° West 284 327 6,100  Climbing Indianapolis Center
07:17 39.8539 -82.8806 303° West 286 329 6,000 -240 Descending Indianapolis Center
07:18 39.8781 -82.9258 305° West 287 330 5,900 -900 Descending Indianapolis Center
07:18 39.8997 -82.9669 304° West 288 331 5,100 -1,380 Descending Indianapolis Center
07:19 39.9264 -83.0156 306° West 281 323 4,500 -1,020 Descending Indianapolis Center
07:19 39.9469 -83.0461 311° West 281 323 4,100 -900 Descending Indianapolis Center
07:20 39.9856 -83.0689 336° Northwest 265 305 3,600 -900 Descending Indianapolis Center
07:20 40.0097 -83.0494 32° Northeast 267 307 3,200 -900 Descending Indianapolis Center
07:21 40.0061 -83.0114 97° East 176 203 2,700 -1,140 Descending Indianapolis Center
07:21 40.0003 -82.9850 106° East 201 231 2,100 -1,200 Descending Indianapolis Center
07:22 39.9975 -82.9531 96° East 132 152 1,500 -1,020 Descending Indianapolis Center
07:22 39.9953 -82.9239 96° East 160 184 1,100 -720 Descending Indianapolis Center